createdAt,value
2023-07-18T00:00:11.736Z,3.50
2023-07-18T00:02:40.457Z,2.60
2023-07-18T00:05:12.937Z,2.83
2023-07-18T00:07:43.816Z,4.22
2023-07-18T00:10:13.526Z,2.58
2023-07-18T00:12:42.551Z,4.30
2023-07-18T00:15:12.294Z,4.68
2023-07-18T00:17:42.027Z,3.72
2023-07-18T00:20:13.773Z,2.55
2023-07-18T00:22:44.627Z,4.97
2023-07-18T00:25:14.978Z,4.93
2023-07-18T00:27:43.848Z,2.88
2023-07-18T00:30:14.684Z,3.80
2023-07-18T00:32:45.690Z,4.05
2023-07-18T00:35:14.531Z,4.00
2023-07-18T00:37:45.023Z,6.05
2023-07-18T00:40:16.219Z,2.80
2023-07-18T00:42:46.687Z,4.13
2023-07-18T00:45:15.361Z,4.07
2023-07-18T00:47:45.399Z,3.72
2023-07-18T00:50:15.729Z,4.60
2023-07-18T00:52:48.439Z,4.93
2023-07-18T00:55:17.505Z,4.57
2023-07-18T00:57:48.409Z,6.40
2023-07-18T01:00:19.007Z,3.17
2023-07-18T01:02:48.860Z,4.35
2023-07-18T01:05:19.921Z,4.82
2023-07-18T01:07:49.776Z,3.65
2023-07-18T01:10:24.669Z,5.50
2023-07-18T01:12:53.822Z,2.92
2023-07-18T01:15:22.508Z,4.97
2023-07-18T01:17:51.427Z,5.60
2023-07-18T01:20:23.245Z,5.40
2023-07-18T01:22:54.880Z,6.80
2023-07-18T01:25:23.910Z,5.00
2023-07-18T01:27:55.203Z,3.33
2023-07-18T01:30:26.205Z,6.72
2023-07-18T01:32:55.269Z,4.45
2023-07-18T01:35:26.344Z,3.85
2023-07-18T01:37:57.486Z,4.00
2023-07-18T01:40:26.157Z,6.10
2023-07-18T01:42:56.777Z,3.75
2023-07-18T01:45:25.942Z,7.20
2023-07-18T01:47:54.895Z,5.93
2023-07-18T01:50:23.126Z,4.85
2023-07-18T01:52:51.394Z,5.13
2023-07-18T01:55:21.401Z,4.28
2023-07-18T01:57:51.969Z,7.35
2023-07-18T02:00:22.628Z,3.95
2023-07-18T02:02:53.278Z,4.93
2023-07-18T02:05:23.332Z,4.47
2023-07-18T02:07:51.893Z,4.28
2023-07-18T02:10:23.057Z,3.80
2023-07-18T02:12:53.403Z,4.35
2023-07-18T02:15:22.402Z,3.60
2023-07-18T02:17:50.768Z,5.32
2023-07-18T02:20:20.035Z,4.97
2023-07-18T02:22:51.516Z,4.15
2023-07-18T02:25:21.860Z,5.43
2023-07-18T02:27:50.007Z,3.70
2023-07-18T02:30:18.482Z,4.95
2023-07-18T02:32:47.102Z,3.70
2023-07-18T02:35:20.097Z,10.45
2023-07-18T02:37:48.686Z,7.50
2023-07-18T02:40:18.711Z,5.03
2023-07-18T02:42:48.784Z,5.03
2023-07-18T02:45:17.001Z,4.82
2023-07-18T02:47:45.218Z,5.25
2023-07-18T02:50:13.404Z,3.97
2023-07-18T02:52:41.759Z,3.35
2023-07-18T02:55:10.605Z,5.63
2023-07-18T02:57:39.889Z,4.75
2023-07-18T03:00:21.354Z,6.13
2023-07-18T03:02:51.279Z,2.67
2023-07-18T03:05:20.433Z,5.07
2023-07-18T03:07:48.930Z,6.45
2023-07-18T03:10:17.302Z,4.13
2023-07-18T03:12:45.553Z,5.65
2023-07-18T03:15:17.597Z,4.30
2023-07-18T03:17:46.036Z,6.70
2023-07-18T03:20:18.702Z,3.72
2023-07-18T03:22:47.577Z,4.78
2023-07-18T03:25:17.377Z,4.80
2023-07-18T03:27:45.988Z,3.00
2023-07-18T03:30:16.003Z,3.83
2023-07-18T03:32:44.894Z,4.07
2023-07-18T03:35:15.499Z,7.55
2023-07-18T03:37:43.970Z,7.82
2023-07-18T03:40:17.714Z,5.25
2023-07-18T03:42:46.771Z,6.28
2023-07-18T03:45:17.063Z,7.07
2023-07-18T03:47:45.932Z,3.70
2023-07-18T03:50:16.430Z,4.75
2023-07-18T03:52:44.776Z,6.45
2023-07-18T03:55:13.465Z,4.70
2023-07-18T03:57:43.078Z,4.78
2023-07-18T04:00:18.445Z,4.03
2023-07-18T04:02:50.705Z,6.05
2023-07-18T04:05:20.108Z,4.70
2023-07-18T04:07:48.947Z,6.95
2023-07-18T04:10:17.244Z,8.73
2023-07-18T04:12:46.030Z,5.25
2023-07-18T04:15:16.039Z,4.93
2023-07-18T04:17:44.445Z,3.53
2023-07-18T04:20:15.568Z,5.30
2023-07-18T04:22:43.837Z,6.15
2023-07-18T04:25:12.961Z,4.97
2023-07-18T04:27:41.203Z,4.97
2023-07-18T04:30:11.653Z,5.50
2023-07-18T04:32:41.482Z,4.60
2023-07-18T04:35:10.472Z,7.60
2023-07-18T04:37:40.414Z,5.15
2023-07-18T04:40:10.088Z,6.18
2023-07-18T04:42:38.568Z,5.35
2023-07-18T04:45:07.890Z,5.68
2023-07-18T04:47:36.175Z,4.88
2023-07-18T04:50:04.853Z,5.45
2023-07-18T04:52:33.905Z,5.68
2023-07-18T04:55:03.503Z,4.45
2023-07-18T04:57:32.283Z,4.22
2023-07-18T05:00:00.438Z,5.35
2023-07-18T05:02:28.636Z,5.22
2023-07-18T05:04:58.366Z,5.13
2023-07-18T05:07:26.605Z,8.82
2023-07-18T05:09:54.883Z,5.55
2023-07-18T05:12:24.388Z,4.85
2023-07-18T05:14:52.832Z,4.50
2023-07-18T05:17:21.232Z,4.30
2023-07-18T05:19:49.450Z,8.52
2023-07-18T05:22:17.678Z,8.05
2023-07-18T05:24:45.820Z,5.38
2023-07-18T05:27:14.294Z,4.68
2023-07-18T05:29:44.281Z,6.18
2023-07-18T05:32:12.456Z,5.68
2023-07-18T05:34:40.692Z,6.40
2023-07-18T05:37:08.843Z,7.15
2023-07-18T05:39:37.338Z,3.53
2023-07-18T05:42:06.055Z,5.45
2023-07-18T05:44:34.652Z,6.07
2023-07-18T05:47:04.275Z,6.80
2023-07-18T05:49:32.410Z,7.43
2023-07-18T05:52:01.222Z,6.00
2023-07-18T05:54:30.580Z,5.65
2023-07-18T05:57:00.318Z,6.40
2023-07-18T05:59:28.939Z,5.63
2023-07-18T06:01:57.247Z,5.28
2023-07-18T06:04:26.853Z,4.72
2023-07-18T06:06:56.196Z,5.20
2023-07-18T06:09:24.425Z,4.95
2023-07-18T06:11:52.649Z,3.78
2023-07-18T06:14:21.182Z,4.35
2023-07-18T06:16:49.400Z,6.05
2023-07-18T06:19:17.984Z,4.45
2023-07-18T06:21:47.568Z,4.22
2023-07-18T06:24:19.889Z,4.63
2023-07-18T06:26:51.112Z,4.95
2023-07-18T06:29:20.339Z,5.82
2023-07-18T06:31:49.245Z,7.95
2023-07-18T06:34:18.493Z,5.30
2023-07-18T06:36:48.984Z,5.13
2023-07-18T06:39:19.243Z,3.70
2023-07-18T06:41:48.055Z,6.35
2023-07-18T06:44:16.649Z,3.10
2023-07-18T06:46:45.559Z,6.45
2023-07-18T06:49:14.545Z,5.32
2023-07-18T06:51:42.816Z,5.18
2023-07-18T06:54:12.885Z,6.45
2023-07-18T06:56:42.185Z,6.25
2023-07-18T06:59:10.652Z,2.60
2023-07-18T07:01:39.078Z,6.28
2023-07-18T07:04:07.430Z,6.00
2023-07-18T07:06:42.455Z,6.97
2023-07-18T07:09:14.964Z,4.60
2023-07-18T07:11:43.348Z,7.63
2023-07-18T07:14:13.056Z,6.35
2023-07-18T07:16:42.236Z,4.28
2023-07-18T07:19:10.932Z,5.57
2023-07-18T07:21:39.226Z,4.18
2023-07-18T07:24:08.027Z,4.63
2023-07-18T07:26:39.213Z,3.55
2023-07-18T07:29:08.752Z,4.97
2023-07-18T07:31:44.985Z,5.80
2023-07-18T07:34:13.551Z,3.05
2023-07-18T07:36:41.672Z,3.20
2023-07-18T07:39:09.833Z,4.72
2023-07-18T07:41:38.271Z,4.65
2023-07-18T07:44:07.508Z,2.80
2023-07-18T07:46:36.006Z,3.03
2023-07-18T07:49:05.922Z,4.88
2023-07-18T07:51:35.005Z,5.88
2023-07-18T07:54:03.318Z,4.53
2023-07-18T07:56:31.856Z,3.40
2023-07-18T08:01:31.226Z,7.35
2023-07-18T08:03:59.529Z,5.20
2023-07-18T08:06:29.101Z,2.13
2023-07-18T08:08:57.262Z,6.63
2023-07-18T08:11:25.764Z,5.25
2023-07-18T08:13:54.631Z,3.08
2023-07-18T08:16:23.226Z,3.85
2023-07-18T08:18:51.407Z,3.80
2023-07-18T08:21:20.165Z,4.22
2023-07-18T08:23:50.394Z,3.40
2023-07-18T08:26:18.801Z,4.57
2023-07-18T08:28:46.962Z,3.13
2023-07-18T08:31:15.510Z,4.38
2023-07-18T08:33:43.708Z,3.50
2023-07-18T08:36:12.370Z,3.22
2023-07-18T08:38:40.539Z,3.95
2023-07-18T08:41:10.608Z,2.75
2023-07-18T08:43:39.710Z,2.88
2023-07-18T08:46:09.970Z,1.92
2023-07-18T08:48:38.791Z,3.63
2023-07-18T08:51:07.424Z,2.30
2023-07-18T08:53:35.764Z,3.03
2023-07-18T08:56:05.003Z,2.60
2023-07-18T08:58:37.623Z,3.50
2023-07-18T09:01:06.280Z,1.33
2023-07-18T09:03:34.544Z,3.53
2023-07-18T09:06:04.251Z,6.55
2023-07-18T09:08:42.036Z,1.60
2023-07-18T09:11:12.321Z,1.60
2023-07-18T09:13:42.441Z,1.27
2023-07-18T09:16:14.835Z,3.25
2023-07-18T09:18:50.735Z,3.80
2023-07-18T09:21:20.206Z,1.55
2023-07-18T09:23:49.526Z,5.20
2023-07-18T09:26:20.650Z,2.90
2023-07-18T09:28:52.736Z,1.83
2023-07-18T09:31:22.886Z,2.45
2023-07-18T09:33:52.573Z,3.92
2023-07-18T09:36:22.413Z,2.15
2023-07-18T09:38:51.758Z,3.60
2023-07-18T09:41:21.894Z,1.90
2023-07-18T09:44:02.751Z,1.95
2023-07-18T09:46:34.843Z,3.95
2023-07-18T09:49:03.648Z,3.55
2023-07-18T09:51:34.472Z,2.70
2023-07-18T09:54:06.467Z,3.05
2023-07-18T09:56:36.858Z,2.63
2023-07-18T09:59:09.509Z,2.50
2023-07-18T10:01:40.004Z,2.50
2023-07-18T10:04:09.523Z,3.47
2023-07-18T10:06:37.984Z,3.55
2023-07-18T10:09:06.872Z,1.40
2023-07-18T10:11:55.035Z,2.17
2023-07-18T10:14:24.579Z,1.70
2023-07-18T10:16:56.816Z,2.05
2023-07-18T10:19:25.598Z,1.98
2023-07-18T10:21:54.662Z,3.65
2023-07-18T10:24:33.505Z,3.97
2023-07-18T10:27:03.370Z,3.50
2023-07-18T10:29:34.102Z,2.30
2023-07-18T10:32:02.528Z,3.50
2023-07-18T10:34:30.775Z,3.35
2023-07-18T10:37:00.466Z,1.88
2023-07-18T10:39:40.518Z,2.33
2023-07-18T10:42:10.360Z,2.63
2023-07-18T10:44:40.286Z,2.70
2023-07-18T10:47:16.420Z,5.45
2023-07-18T10:49:46.372Z,2.63
2023-07-18T10:52:14.683Z,1.67
2023-07-18T10:54:46.563Z,1.20
2023-07-18T10:57:16.562Z,1.90
2023-07-18T10:59:46.747Z,1.35
2023-07-18T11:02:15.182Z,4.43
2023-07-18T11:04:43.787Z,2.50
2023-07-18T11:07:12.079Z,1.98
2023-07-18T11:09:40.230Z,1.38
2023-07-18T11:12:12.196Z,1.83
2023-07-18T11:14:40.628Z,2.67
2023-07-18T11:17:14.033Z,2.80
2023-07-18T11:19:42.517Z,3.38
2023-07-18T11:22:12.317Z,1.25
2023-07-18T11:24:40.524Z,1.42
2023-07-18T11:27:20.131Z,1.80
2023-07-18T11:29:58.786Z,1.23
2023-07-18T11:32:39.395Z,2.38
2023-07-18T11:35:10.119Z,1.35
2023-07-18T11:37:43.184Z,3.65
2023-07-18T11:40:12.420Z,3.28
2023-07-18T11:42:48.709Z,4.53
2023-07-18T11:45:21.619Z,2.58
2023-07-18T11:47:54.638Z,2.67
2023-07-18T11:50:24.749Z,2.45
2023-07-18T11:52:55.121Z,1.83
2023-07-18T11:55:24.859Z,3.25
2023-07-18T11:57:53.037Z,1.00
2023-07-18T12:00:22.141Z,1.92
2023-07-18T12:02:51.755Z,1.73
2023-07-18T12:05:20.397Z,1.23
2023-07-18T12:07:48.590Z,1.65
2023-07-18T12:10:17.138Z,2.05
2023-07-18T12:12:45.990Z,2.08
2023-07-18T12:15:15.109Z,1.45
2023-07-18T12:17:43.844Z,3.28
2023-07-18T12:20:14.352Z,1.00
2023-07-18T12:22:42.797Z,1.02
2023-07-18T12:25:11.487Z,2.00
2023-07-18T12:27:39.933Z,1.63
2023-07-18T12:30:13.641Z,2.70
2023-07-18T12:32:42.010Z,1.85
2023-07-18T12:35:10.839Z,1.40
2023-07-18T12:37:40.773Z,2.83
2023-07-18T12:40:10.016Z,2.20
2023-07-18T12:42:38.626Z,1.83
2023-07-18T12:45:08.490Z,3.30
2023-07-18T12:47:36.774Z,2.60
2023-07-18T12:50:07.373Z,2.42
2023-07-18T12:52:36.311Z,1.75
2023-07-18T12:55:06.614Z,1.27
2023-07-18T12:57:34.763Z,3.30
2023-07-18T13:00:03.224Z,1.52
2023-07-18T13:02:31.668Z,2.03
2023-07-18T13:05:00.185Z,2.55
2023-07-18T13:07:28.360Z,2.03
2023-07-18T13:09:56.562Z,0.93
2023-07-18T13:12:26.208Z,3.15
2023-07-18T13:14:54.386Z,3.80
2023-07-18T13:17:22.768Z,2.55
2023-07-18T13:19:50.943Z,3.35
2023-07-18T13:22:19.410Z,0.73
2023-07-18T13:24:47.573Z,1.25
2023-07-18T13:27:15.926Z,1.65
2023-07-18T13:29:45.453Z,4.18
2023-07-18T13:32:13.977Z,1.40
2023-07-18T13:34:42.567Z,2.00
2023-07-18T13:37:10.996Z,1.15
2023-07-18T13:39:39.484Z,1.35
2023-07-18T13:42:09.063Z,0.70
2023-07-18T13:44:37.236Z,0.90
2023-07-18T13:47:07.267Z,2.58
2023-07-18T13:52:07.575Z,1.27
2023-07-18T13:54:36.195Z,1.48
2023-07-18T13:57:04.684Z,1.58
2023-07-18T13:59:33.442Z,2.03
2023-07-18T14:02:01.656Z,0.90
2023-07-18T14:04:31.357Z,0.85
2023-07-18T14:06:59.850Z,2.33
2023-07-18T14:09:28.078Z,1.98
2023-07-18T14:11:56.610Z,3.10
2023-07-18T14:14:24.759Z,1.13
2023-07-18T14:16:53.018Z,2.38
2023-07-18T14:19:21.201Z,1.75
2023-07-18T14:21:51.122Z,1.58
2023-07-18T14:24:19.673Z,3.10
2023-07-18T14:26:48.123Z,1.35
2023-07-18T14:29:16.269Z,0.77
2023-07-18T14:31:44.558Z,3.00
2023-07-18T14:34:12.928Z,1.15
2023-07-18T14:36:41.120Z,2.53
2023-07-18T14:39:10.669Z,2.63
2023-07-18T14:41:38.824Z,2.17
2023-07-18T14:44:07.077Z,2.05
2023-07-18T14:46:35.253Z,1.13
2023-07-18T14:49:03.960Z,1.88
2023-07-18T14:51:33.478Z,0.98
2023-07-18T14:54:01.689Z,1.58
2023-07-18T14:56:32.843Z,5.15
2023-07-18T14:59:01.092Z,1.35
2023-07-18T15:01:29.377Z,1.83
2023-07-18T15:03:59.886Z,1.02
2023-07-18T15:06:28.196Z,1.15
2023-07-18T15:08:56.528Z,1.30
2023-07-18T15:11:25.461Z,0.85
2023-07-18T15:13:55.000Z,0.90
2023-07-18T15:16:23.577Z,1.40
2023-07-18T15:18:52.809Z,1.88
2023-07-18T15:21:20.999Z,1.15
2023-07-18T15:23:49.169Z,2.00
2023-07-18T15:26:18.115Z,2.67
2023-07-18T15:28:46.855Z,1.05
2023-07-18T15:31:16.674Z,2.03
2023-07-18T15:33:44.878Z,1.90
2023-07-18T15:36:13.503Z,2.58
2023-07-18T15:38:43.322Z,2.58
2023-07-18T15:41:13.176Z,0.82
2023-07-18T15:43:43.595Z,1.45
2023-07-18T15:46:12.044Z,1.23
2023-07-18T15:48:45.596Z,1.35
2023-07-18T15:51:13.813Z,1.17
2023-07-18T15:53:42.293Z,1.40
2023-07-18T15:56:15.429Z,1.80
2023-07-18T15:58:44.274Z,1.05
2023-07-18T16:01:12.785Z,2.47
2023-07-18T16:03:42.793Z,0.80
2023-07-18T16:06:11.005Z,2.38
2023-07-18T16:08:39.600Z,1.77
2023-07-18T16:11:07.771Z,1.20
2023-07-18T16:13:36.627Z,0.90
2023-07-18T16:16:06.085Z,2.78
2023-07-18T16:18:34.559Z,1.10
2023-07-18T16:21:04.204Z,0.98
2023-07-18T16:23:32.471Z,1.02
2023-07-18T16:26:00.636Z,0.60
2023-07-18T16:28:29.089Z,3.08
2023-07-18T16:30:57.281Z,1.10
2023-07-18T16:33:25.762Z,0.63
2023-07-18T16:35:54.022Z,1.88
2023-07-18T16:38:23.908Z,1.23
2023-07-18T16:40:52.069Z,2.63
2023-07-18T16:43:20.241Z,1.25
2023-07-18T16:45:51.902Z,1.45
2023-07-18T16:48:20.105Z,2.85
2023-07-18T16:50:48.531Z,1.85
2023-07-18T16:53:16.735Z,1.55
2023-07-18T16:55:46.552Z,1.75
2023-07-18T16:58:15.721Z,1.27
2023-07-18T17:00:44.252Z,2.13
2023-07-18T17:03:12.744Z,2.38
2023-07-18T17:05:41.394Z,1.55
2023-07-18T17:08:09.536Z,1.83
2023-07-18T17:10:38.147Z,3.65
2023-07-18T17:13:09.175Z,1.88
2023-07-18T17:15:37.609Z,0.95
2023-07-18T17:18:08.466Z,2.65
2023-07-18T17:20:37.379Z,1.38
2023-07-18T17:23:05.919Z,1.15
2023-07-18T17:25:34.138Z,1.90
2023-07-18T17:28:02.374Z,1.42
2023-07-18T17:30:31.993Z,1.17
2023-07-18T17:33:00.283Z,1.15
2023-07-18T17:35:28.813Z,1.95
2023-07-18T17:37:56.953Z,2.00
2023-07-18T17:40:25.298Z,2.13
2023-07-18T17:42:53.454Z,1.10
2023-07-18T17:45:23.546Z,1.38
2023-07-18T17:47:53.221Z,2.30
2023-07-18T17:50:21.808Z,4.22
2023-07-18T17:52:49.985Z,2.05
2023-07-18T17:55:18.607Z,1.27
2023-07-18T17:57:46.784Z,0.90
2023-07-18T18:00:15.756Z,3.28
2023-07-18T18:02:44.045Z,2.45
2023-07-18T18:05:36.482Z,1.63
2023-07-18T18:08:06.192Z,2.00
2023-07-18T18:10:34.887Z,1.48
2023-07-18T18:13:03.092Z,3.35
2023-07-18T18:15:31.380Z,1.00
2023-07-18T18:17:59.745Z,1.10
2023-07-18T18:20:27.984Z,1.88
2023-07-18T18:22:59.338Z,2.28
2023-07-18T18:25:28.190Z,1.48
2023-07-18T18:27:57.760Z,1.70
2023-07-18T18:30:26.866Z,0.98
2023-07-18T18:32:55.526Z,2.83
2023-07-18T18:35:23.844Z,2.63
2023-07-18T18:37:52.054Z,2.13
2023-07-18T18:40:21.683Z,1.67
2023-07-18T18:42:49.877Z,2.03
2023-07-18T18:45:18.505Z,3.03
2023-07-18T18:47:47.637Z,1.08
2023-07-18T18:50:18.343Z,2.65
2023-07-18T18:52:46.850Z,1.42
2023-07-18T18:55:20.290Z,1.80
2023-07-18T18:57:50.554Z,2.13
2023-07-18T19:00:19.022Z,1.70
2023-07-18T19:02:47.343Z,1.98
2023-07-18T19:05:15.786Z,1.20
2023-07-18T19:07:43.999Z,1.38
2023-07-18T19:10:12.324Z,0.80
2023-07-18T19:12:40.581Z,1.27
2023-07-18T19:15:10.888Z,2.50
2023-07-18T19:17:39.327Z,3.42
2023-07-18T19:20:09.157Z,1.77
2023-07-18T19:22:37.675Z,3.22
2023-07-18T19:25:09.077Z,1.35
2023-07-18T19:27:38.536Z,2.90
2023-07-18T19:30:07.930Z,1.15
2023-07-18T19:32:37.767Z,2.10
2023-07-18T19:35:06.753Z,1.25
2023-07-18T19:37:35.013Z,1.13
2023-07-18T19:40:03.629Z,1.70
2023-07-18T19:42:31.827Z,1.40
2023-07-18T19:45:00.032Z,3.65
2023-07-18T19:47:28.335Z,2.45
2023-07-18T19:49:57.906Z,2.90
2023-07-18T19:52:26.197Z,2.47
2023-07-18T19:54:54.398Z,1.95
2023-07-18T19:57:23.670Z,1.50
2023-07-18T19:59:52.274Z,1.48
2023-07-18T20:02:20.509Z,1.75
2023-07-18T20:04:48.787Z,1.77
2023-07-18T20:07:18.340Z,1.90
2023-07-18T20:09:46.843Z,2.08
2023-07-18T20:12:15.288Z,2.80
2023-07-18T20:14:43.487Z,2.75
2023-07-18T20:17:12.401Z,5.15
2023-07-18T20:19:40.636Z,2.50
2023-07-18T20:22:09.191Z,2.10
2023-07-18T20:24:38.734Z,2.65
2023-07-18T20:27:07.699Z,2.42
2023-07-18T20:29:36.918Z,1.65
2023-07-18T20:32:05.851Z,5.57
2023-07-18T20:34:34.378Z,1.35
2023-07-18T20:37:02.579Z,2.63
2023-07-18T20:39:32.400Z,2.38
2023-07-18T20:42:02.791Z,1.88
2023-07-18T20:44:31.041Z,1.65
2023-07-18T20:46:59.345Z,3.47
2023-07-18T20:49:28.276Z,2.40
2023-07-18T20:51:56.960Z,2.28
2023-07-18T20:54:25.639Z,1.85
2023-07-18T20:56:54.157Z,1.90
2023-07-18T20:59:24.025Z,1.88
2023-07-18T21:01:52.258Z,3.42
2023-07-18T21:04:20.497Z,2.95
2023-07-18T21:06:49.153Z,4.07
2023-07-18T21:09:17.382Z,1.08
2023-07-18T21:11:45.938Z,2.17
2023-07-18T21:14:14.391Z,3.25
2023-07-18T21:16:44.075Z,3.08
2023-07-18T21:19:12.336Z,2.92
2023-07-18T21:21:40.568Z,6.53
2023-07-18T21:24:09.038Z,3.35
2023-07-18T21:26:37.289Z,2.00
2023-07-18T21:29:05.911Z,2.47
2023-07-18T21:31:34.654Z,2.05
2023-07-18T21:34:05.649Z,1.60
2023-07-18T21:36:34.299Z,1.55
2023-07-18T21:39:02.940Z,3.60
2023-07-18T21:41:32.032Z,3.20
2023-07-18T21:44:00.598Z,1.63
2023-07-18T21:46:28.907Z,3.72
2023-07-18T21:48:57.562Z,1.58
2023-07-18T21:51:27.169Z,2.05
2023-07-18T21:53:55.608Z,1.77
2023-07-18T21:56:23.913Z,1.88
2023-07-18T21:58:52.418Z,4.90
2023-07-18T22:01:20.833Z,1.20
2023-07-18T22:03:49.285Z,2.15
2023-07-18T22:06:17.553Z,1.77
2023-07-18T22:08:47.416Z,2.63
2023-07-18T22:11:15.889Z,3.97
2023-07-18T22:13:44.549Z,2.50
2023-07-18T22:16:12.773Z,2.75
2023-07-18T22:18:41.050Z,1.40
2023-07-18T22:21:09.650Z,2.72
2023-07-18T22:23:37.901Z,1.90
2023-07-18T22:26:14.000Z,1.30
2023-07-18T22:28:43.977Z,1.15
2023-07-18T22:31:12.699Z,2.05
2023-07-18T22:33:41.420Z,4.30
2023-07-18T22:36:09.848Z,2.60
2023-07-18T22:38:38.075Z,4.22
2023-07-18T22:41:07.743Z,2.60
2023-07-18T22:43:37.179Z,1.95
2023-07-18T22:46:05.760Z,1.88
2023-07-18T22:48:34.032Z,3.38
2023-07-18T22:51:02.224Z,3.25
2023-07-18T22:53:30.372Z,2.00
2023-07-18T22:55:58.874Z,2.22
2023-07-18T22:58:28.451Z,2.20
2023-07-18T23:00:57.014Z,1.98
2023-07-18T23:03:25.376Z,1.92
2023-07-18T23:05:53.632Z,2.30
2023-07-18T23:08:21.828Z,1.20
2023-07-18T23:10:50.152Z,2.08
2023-07-18T23:13:18.439Z,0.90
2023-07-18T23:15:48.051Z,2.30
2023-07-18T23:18:16.399Z,1.65
2023-07-18T23:20:46.234Z,1.15
2023-07-18T23:23:14.514Z,1.52
2023-07-18T23:25:42.742Z,2.83
2023-07-18T23:28:11.116Z,3.05
2023-07-18T23:30:43.651Z,4.50
2023-07-18T23:33:13.287Z,3.65
2023-07-18T23:35:41.452Z,4.88
2023-07-18T23:38:09.625Z,2.47
2023-07-18T23:40:38.084Z,1.55
2023-07-18T23:43:07.227Z,2.15
2023-07-18T23:45:35.875Z,1.60
2023-07-18T23:48:04.157Z,3.63
2023-07-18T23:50:34.186Z,1.83
2023-07-18T23:53:02.360Z,2.50
2023-07-18T23:55:30.575Z,1.02
2023-07-18T23:57:58.753Z,2.78
